createdAt,value
2022-08-25T00:01:54.821Z,19.67
2022-08-25T00:04:24.800Z,17.15
2022-08-25T00:06:59.392Z,17.83
2022-08-25T00:09:31.639Z,19.27
2022-08-25T00:11:59.966Z,15.60
2022-08-25T00:14:30.521Z,16.60
2022-08-25T00:16:59.960Z,14.00
2022-08-25T00:19:32.173Z,12.88
2022-08-25T00:22:00.852Z,12.43
2022-08-25T00:24:29.582Z,18.67
2022-08-25T00:26:59.271Z,13.35
2022-08-25T00:29:30.770Z,17.92
2022-08-25T00:32:00.921Z,10.98
2022-08-25T00:34:31.973Z,20.45
2022-08-25T00:37:00.084Z,17.60
2022-08-25T00:39:28.733Z,20.30
2022-08-25T00:41:58.490Z,13.95
2022-08-25T00:44:27.877Z,20.63
2022-08-25T00:46:58.292Z,18.63
2022-08-25T00:49:31.360Z,18.13
2022-08-25T00:52:02.410Z,15.95
2022-08-25T00:54:36.282Z,24.15
2022-08-25T00:57:05.956Z,15.95
2022-08-25T00:59:34.505Z,15.82
2022-08-25T01:02:03.174Z,21.65
2022-08-25T01:04:33.002Z,19.67
2022-08-25T01:07:03.183Z,19.05
2022-08-25T01:09:32.815Z,23.08
2022-08-25T01:12:01.813Z,18.83
2022-08-25T01:14:32.031Z,15.82
2022-08-25T01:17:00.563Z,19.90
2022-08-25T01:19:30.490Z,16.15
2022-08-25T01:22:00.288Z,17.33
2022-08-25T01:24:36.442Z,16.42
2022-08-25T01:27:05.457Z,17.40
2022-08-25T01:29:34.141Z,19.63
2022-08-25T01:32:06.470Z,15.75
2022-08-25T01:34:36.787Z,15.52
2022-08-25T01:37:06.967Z,15.48
2022-08-25T01:39:36.763Z,16.60
2022-08-25T01:42:29.097Z,20.80
2022-08-25T01:44:57.648Z,15.73
2022-08-25T01:47:25.704Z,24.67
2022-08-25T01:49:53.840Z,21.60
2022-08-25T01:52:29.533Z,20.58
2022-08-25T01:54:57.694Z,19.65
2022-08-25T01:57:25.969Z,23.27
2022-08-25T01:59:54.069Z,19.13
2022-08-25T02:02:22.119Z,22.35
2022-08-25T02:04:50.771Z,20.73
2022-08-25T02:07:19.751Z,22.20
2022-08-25T02:09:49.203Z,25.70
2022-08-25T02:12:17.314Z,21.65
2022-08-25T02:14:46.189Z,21.85
2022-08-25T02:17:14.275Z,19.75
2022-08-25T02:19:42.379Z,19.88
2022-08-25T02:22:10.447Z,23.45
2022-08-25T02:24:38.613Z,20.08
2022-08-25T02:27:08.534Z,16.05
2022-08-25T02:29:36.631Z,20.15
2022-08-25T02:32:05.563Z,22.83
2022-08-25T02:34:33.681Z,23.83
2022-08-25T02:37:02.209Z,20.30
2022-08-25T02:39:30.249Z,25.40
2022-08-25T02:41:59.846Z,17.35
2022-08-25T02:44:29.339Z,26.77
2022-08-25T02:46:57.371Z,27.85
2022-08-25T02:49:25.428Z,23.40
2022-08-25T02:51:54.506Z,21.20
2022-08-25T02:54:23.312Z,28.83
2022-08-25T02:56:51.358Z,28.70
2022-08-25T02:59:19.525Z,26.05
2022-08-25T03:01:48.872Z,22.60
2022-08-25T03:04:18.064Z,26.90
2022-08-25T03:06:46.592Z,23.75
2022-08-25T03:09:18.042Z,35.67
2022-08-25T03:11:47.244Z,26.60
2022-08-25T03:14:15.353Z,26.42
2022-08-25T03:16:46.331Z,25.50
2022-08-25T03:19:16.822Z,26.73
2022-08-25T03:21:46.156Z,25.55
2022-08-25T03:24:14.342Z,23.63
2022-08-25T03:26:53.732Z,42.70
2022-08-25T03:29:22.313Z,30.13
2022-08-25T03:31:50.747Z,28.88
2022-08-25T03:34:22.056Z,25.40
2022-08-25T03:36:53.447Z,24.85
2022-08-25T03:39:23.242Z,26.83
2022-08-25T03:41:51.886Z,32.58
2022-08-25T03:44:22.088Z,25.13
2022-08-25T03:46:52.783Z,25.48
2022-08-25T03:49:24.138Z,25.50
2022-08-25T03:51:54.904Z,25.92
2022-08-25T03:54:25.438Z,21.40
2022-08-25T03:56:53.904Z,25.08
2022-08-25T03:59:22.098Z,31.38
2022-08-25T04:01:54.800Z,30.33
2022-08-25T04:04:25.164Z,36.78
2022-08-25T04:06:53.979Z,32.88
2022-08-25T04:09:22.638Z,44.65
2022-08-25T04:11:53.156Z,27.45
2022-08-25T04:14:22.568Z,29.63
2022-08-25T04:16:51.323Z,34.78
2022-08-25T04:19:20.360Z,32.17
2022-08-25T04:21:50.143Z,28.98
2022-08-25T04:24:18.328Z,30.67
2022-08-25T04:26:48.743Z,26.55
2022-08-25T04:29:19.618Z,41.88
2022-08-25T04:31:52.627Z,31.58
2022-08-25T04:34:29.531Z,38.85
2022-08-25T04:37:02.678Z,27.77
2022-08-25T04:39:31.708Z,26.35
2022-08-25T04:42:00.886Z,27.98
2022-08-25T04:44:30.205Z,35.25
2022-08-25T04:46:58.873Z,34.60
2022-08-25T04:49:27.193Z,34.35
2022-08-25T04:51:56.374Z,27.80
2022-08-25T04:54:25.937Z,37.72
2022-08-25T04:56:57.946Z,31.48
2022-08-25T04:59:30.293Z,33.28
2022-08-25T05:02:02.465Z,36.92
2022-08-25T05:04:31.834Z,30.25
2022-08-25T05:07:00.424Z,37.47
2022-08-25T05:09:32.611Z,33.22
2022-08-25T05:12:02.365Z,37.85
2022-08-25T05:14:31.635Z,38.42
2022-08-25T05:17:00.065Z,36.22
2022-08-25T05:19:28.424Z,43.50
2022-08-25T05:21:57.717Z,42.72
2022-08-25T05:24:26.934Z,34.38
2022-08-25T05:26:56.669Z,33.15
2022-08-25T05:29:25.084Z,44.67
2022-08-25T05:31:54.238Z,39.92
2022-08-25T05:34:22.863Z,33.55
2022-08-25T05:36:51.568Z,47.88
2022-08-25T05:39:19.821Z,37.17
2022-08-25T05:41:47.924Z,39.67
2022-08-25T05:44:20.861Z,39.47
2022-08-25T05:46:50.304Z,37.10
2022-08-25T05:49:18.855Z,37.78
2022-08-25T05:51:46.930Z,29.95
2022-08-25T05:54:14.980Z,35.33
2022-08-25T05:56:43.094Z,42.10
2022-08-25T05:59:11.074Z,42.92
2022-08-25T06:01:58.011Z,33.17
2022-08-25T06:04:26.175Z,50.30
2022-08-25T06:06:55.024Z,40.35
2022-08-25T06:09:24.384Z,36.00
2022-08-25T06:11:55.026Z,40.30
2022-08-25T06:14:25.122Z,26.77
2022-08-25T06:16:54.583Z,30.92
2022-08-25T06:19:23.560Z,39.83
2022-08-25T06:21:55.904Z,44.63
2022-08-25T06:24:24.510Z,39.72
2022-08-25T06:26:52.607Z,35.38
2022-08-25T06:29:21.185Z,32.03
2022-08-25T06:31:50.094Z,39.00
2022-08-25T06:34:23.749Z,30.98
2022-08-25T06:36:52.818Z,33.10
2022-08-25T06:39:21.054Z,37.03
2022-08-25T06:41:52.536Z,34.97
2022-08-25T06:44:20.738Z,40.33
2022-08-25T06:46:48.921Z,40.78
2022-08-25T06:49:17.059Z,41.47
2022-08-25T06:51:46.677Z,39.88
2022-08-25T06:54:14.811Z,30.15
2022-08-25T06:56:43.851Z,29.73
2022-08-25T06:59:12.201Z,35.13
2022-08-25T07:01:40.722Z,33.65
2022-08-25T07:04:12.730Z,31.30
2022-08-25T07:06:42.340Z,29.83
2022-08-25T07:09:13.804Z,34.85
2022-08-25T07:11:43.636Z,33.95
2022-08-25T07:14:13.366Z,32.70
2022-08-25T07:16:48.563Z,35.47
2022-08-25T07:19:21.045Z,35.17
2022-08-25T07:21:51.645Z,48.22
2022-08-25T07:24:21.683Z,30.58
2022-08-25T07:26:50.017Z,35.75
2022-08-25T07:29:31.965Z,27.48
2022-08-25T07:32:01.847Z,29.13
2022-08-25T07:34:52.529Z,31.77
2022-08-25T07:37:47.649Z,22.48
2022-08-25T07:40:14.752Z,28.48
2022-08-25T07:42:43.324Z,24.27
2022-08-25T07:45:12.823Z,28.48
2022-08-25T07:47:40.916Z,22.02
2022-08-25T07:50:11.755Z,42.65
2022-08-25T07:52:40.519Z,30.70
2022-08-25T07:55:11.133Z,36.20
2022-08-25T07:57:42.413Z,24.77
2022-08-25T08:00:12.208Z,22.73
2022-08-25T08:02:40.828Z,32.47
2022-08-25T08:05:10.717Z,29.80
2022-08-25T08:07:43.473Z,26.98
2022-08-25T08:10:53.589Z,29.30
2022-08-25T08:13:06.603Z,28.13
2022-08-25T08:15:35.803Z,23.27
2022-08-25T08:18:07.339Z,26.58
2022-08-25T08:20:42.735Z,37.70
2022-08-25T08:23:11.633Z,27.90
2022-08-25T08:25:39.712Z,28.88
2022-08-25T08:28:10.904Z,30.80
2022-08-25T08:30:39.193Z,26.25
2022-08-25T08:33:12.335Z,25.98
2022-08-25T08:35:41.530Z,28.15
2022-08-25T08:38:14.973Z,31.15
2022-08-25T08:41:15.599Z,27.17
2022-08-25T08:43:47.779Z,35.80
2022-08-25T08:46:17.669Z,21.50
2022-08-25T08:48:59.655Z,28.55
2022-08-25T08:51:34.227Z,34.70
2022-08-25T08:54:15.029Z,33.60
2022-08-25T08:56:48.113Z,30.50
2022-08-25T08:59:22.447Z,24.48
2022-08-25T09:02:01.929Z,30.92
2022-08-25T09:04:36.119Z,22.33
2022-08-25T09:07:07.771Z,20.45
2022-08-25T09:09:40.123Z,22.40
2022-08-25T09:12:14.663Z,28.40
2022-08-25T09:15:01.281Z,24.80
2022-08-25T09:17:44.096Z,25.90
2022-08-25T09:20:50.724Z,31.55
2022-08-25T09:23:33.999Z,31.08
2022-08-25T09:26:12.212Z,23.75
2022-08-25T09:28:48.967Z,31.33
2022-08-25T09:31:29.152Z,18.83
2022-08-25T09:34:01.045Z,21.23
2022-08-25T09:36:34.325Z,25.88
2022-08-25T09:39:05.662Z,24.13
2022-08-25T09:41:44.147Z,21.20
2022-08-25T09:44:24.184Z,20.65
2022-08-25T09:47:04.595Z,20.52
2022-08-25T09:49:40.194Z,17.80
2022-08-25T09:52:35.480Z,12.63
2022-08-25T09:55:27.807Z,19.88
2022-08-25T09:57:57.810Z,20.73
2022-08-25T10:00:29.089Z,17.15
2022-08-25T10:03:07.904Z,20.13
2022-08-25T10:05:39.625Z,18.63
2022-08-25T10:08:16.363Z,23.40
2022-08-25T10:10:57.610Z,20.27
2022-08-25T10:13:36.114Z,16.25
2022-08-25T10:16:20.373Z,24.10
2022-08-25T10:19:07.231Z,18.75
2022-08-25T10:21:36.743Z,14.00
2022-08-25T10:24:06.671Z,22.20
2022-08-25T10:26:57.134Z,16.85
2022-08-25T10:29:40.796Z,14.00
2022-08-25T10:32:16.840Z,23.42
2022-08-25T10:34:51.647Z,17.13
2022-08-25T10:37:32.738Z,21.17
2022-08-25T10:40:16.547Z,13.32
2022-08-25T10:43:07.678Z,17.83
2022-08-25T10:45:44.261Z,10.90
2022-08-25T10:48:52.700Z,14.68
2022-08-25T10:51:41.906Z,16.00
2022-08-25T10:54:25.071Z,14.30
2022-08-25T10:57:04.070Z,19.90
2022-08-25T10:59:50.596Z,31.13
2022-08-25T11:02:48.816Z,14.20
2022-08-25T11:05:27.284Z,16.83
2022-08-25T11:08:06.663Z,10.88
2022-08-25T11:10:42.830Z,18.83
2022-08-25T11:13:19.009Z,13.05
2022-08-25T11:16:15.578Z,9.30
2022-08-25T11:18:52.604Z,12.63
2022-08-25T11:21:27.127Z,15.93
2022-08-25T11:24:05.799Z,17.08
2022-08-25T11:26:37.334Z,12.70
2022-08-25T11:29:14.345Z,12.07
2022-08-25T11:31:50.836Z,13.38
2022-08-25T11:34:22.526Z,14.57
2022-08-25T11:36:52.839Z,13.82
2022-08-25T11:39:37.290Z,13.43
2022-08-25T11:42:17.535Z,7.15
2022-08-25T11:44:53.671Z,11.90
2022-08-25T11:47:51.993Z,14.77
2022-08-25T11:50:31.149Z,12.93
2022-08-25T11:53:03.153Z,11.18
2022-08-25T11:55:51.037Z,6.20
2022-08-25T11:58:49.853Z,7.78
2022-08-25T12:02:10.244Z,12.45
2022-08-25T12:04:45.157Z,14.30
2022-08-25T12:07:29.097Z,10.43
2022-08-25T12:10:17.189Z,9.63
2022-08-25T12:13:24.282Z,9.52
2022-08-25T12:16:02.625Z,8.98
2022-08-25T12:18:46.482Z,10.55
2022-08-25T12:21:33.059Z,12.77
2022-08-25T12:24:16.442Z,13.90
2022-08-25T12:26:52.937Z,13.60
2022-08-25T12:29:33.123Z,9.98
2022-08-25T12:32:40.075Z,11.88
2022-08-25T12:35:23.816Z,12.60
2022-08-25T12:38:01.980Z,10.27
2022-08-25T12:40:35.695Z,11.93
2022-08-25T12:43:08.387Z,12.82
2022-08-25T12:45:41.586Z,8.93
2022-08-25T12:48:57.941Z,9.90
2022-08-25T12:51:27.993Z,12.48
2022-08-25T12:54:02.162Z,7.45
2022-08-25T12:56:39.154Z,9.35
2022-08-25T12:59:18.776Z,10.63
2022-08-25T13:02:07.129Z,11.35
2022-08-25T13:05:04.121Z,11.75
2022-08-25T13:07:51.580Z,11.82
2022-08-25T13:10:30.915Z,11.15
2022-08-25T13:13:05.892Z,18.52
2022-08-25T13:15:38.380Z,15.20
2022-08-25T13:18:33.214Z,16.65
2022-08-25T13:21:08.377Z,15.27
2022-08-25T13:23:41.938Z,18.15
2022-08-25T13:26:13.367Z,36.15
2022-08-25T13:28:50.146Z,7.00
2022-08-25T13:31:22.287Z,22.73
2022-08-25T13:33:56.831Z,14.82
2022-08-25T13:36:47.117Z,22.33
2022-08-25T13:39:45.519Z,33.25
2022-08-25T13:42:16.099Z,18.67
2022-08-25T13:44:51.759Z,17.05
2022-08-25T13:47:43.313Z,15.90
2022-08-25T13:50:22.659Z,9.73
2022-08-25T13:52:54.267Z,9.60
2022-08-25T13:55:27.418Z,16.15
2022-08-25T13:58:06.169Z,10.93
2022-08-25T14:00:47.358Z,8.02
2022-08-25T14:03:32.095Z,9.93
2022-08-25T14:06:11.816Z,9.30
2022-08-25T14:08:43.407Z,14.18
2022-08-25T14:11:15.168Z,7.50
2022-08-25T14:13:45.462Z,8.23
2022-08-25T14:16:19.438Z,12.02
2022-08-25T14:18:49.915Z,11.77
2022-08-25T14:21:21.361Z,7.13
2022-08-25T14:23:49.547Z,9.48
2022-08-25T14:26:18.010Z,6.80
2022-08-25T14:28:46.597Z,10.38
2022-08-25T14:31:19.675Z,7.75
2022-08-25T14:33:52.925Z,12.98
2022-08-25T14:36:22.726Z,10.65
2022-08-25T14:38:54.524Z,6.68
2022-08-25T14:41:24.864Z,6.35
2022-08-25T14:43:53.223Z,9.60
2022-08-25T14:46:24.228Z,7.97
2022-08-25T14:48:56.684Z,12.25
2022-08-25T14:51:28.358Z,8.77
2022-08-25T14:54:01.201Z,10.27
2022-08-25T14:56:29.488Z,8.38
2022-08-25T14:58:57.640Z,9.48
2022-08-25T15:01:30.053Z,7.03
2022-08-25T15:04:04.029Z,8.93
2022-08-25T15:06:36.325Z,8.73
2022-08-25T15:09:13.723Z,4.30
2022-08-25T15:11:43.918Z,7.57
2022-08-25T15:14:15.633Z,6.18
2022-08-25T15:16:46.367Z,9.85
2022-08-25T15:19:17.081Z,8.65
2022-08-25T15:21:47.578Z,7.25
2022-08-25T15:24:17.420Z,10.52
2022-08-25T15:29:24.493Z,9.43
2022-08-25T15:31:53.024Z,8.93
2022-08-25T15:34:21.186Z,9.02
2022-08-25T15:36:50.709Z,8.77
2022-08-25T15:39:19.659Z,12.13
2022-08-25T15:41:49.282Z,11.55
2022-08-25T15:44:17.846Z,6.72
2022-08-25T15:46:50.006Z,8.45
2022-08-25T15:49:23.159Z,5.82
2022-08-25T15:51:54.540Z,8.93
2022-08-25T15:54:26.816Z,11.68
2022-08-25T15:56:55.570Z,5.45
2022-08-25T15:59:25.359Z,8.13
2022-08-25T16:01:54.669Z,7.20
2022-08-25T16:04:24.234Z,8.75
2022-08-25T16:06:54.306Z,7.88
2022-08-25T16:09:23.938Z,9.00
2022-08-25T16:11:56.193Z,8.32
2022-08-25T16:14:26.283Z,8.77
2022-08-25T16:16:58.400Z,10.82
2022-08-25T16:19:27.099Z,6.88
2022-08-25T16:21:56.739Z,6.95
2022-08-25T16:24:25.004Z,12.77
2022-08-25T16:26:56.713Z,5.70
2022-08-25T16:29:24.897Z,7.13
2022-08-25T16:31:55.426Z,10.45
2022-08-25T16:34:28.550Z,12.35
2022-08-25T16:37:00.549Z,15.43
2022-08-25T16:39:29.015Z,15.98
2022-08-25T16:41:57.441Z,11.93
2022-08-25T16:44:26.391Z,4.93
2022-08-25T16:46:55.385Z,10.52
2022-08-25T16:49:25.436Z,6.43
2022-08-25T16:51:57.207Z,8.63
2022-08-25T16:54:45.675Z,7.82
2022-08-25T16:57:14.215Z,8.68
2022-08-25T16:59:43.891Z,7.82
2022-08-25T17:02:12.252Z,10.25
2022-08-25T17:04:40.981Z,11.02
2022-08-25T17:07:09.135Z,4.15
2022-08-25T17:09:38.492Z,10.18
2022-08-25T17:12:07.028Z,7.32
2022-08-25T17:14:35.235Z,10.32
2022-08-25T17:17:07.120Z,9.95
2022-08-25T17:19:35.631Z,6.40
2022-08-25T17:22:03.892Z,13.32
2022-08-25T17:24:34.883Z,10.88
2022-08-25T17:27:04.763Z,9.55
2022-08-25T17:29:34.991Z,11.95
2022-08-25T17:32:03.043Z,13.93
2022-08-25T17:34:31.989Z,9.05
2022-08-25T17:37:00.713Z,11.02
2022-08-25T17:39:28.779Z,8.75
2022-08-25T17:41:57.367Z,12.57
2022-08-25T17:44:28.915Z,10.30
2022-08-25T17:46:58.359Z,9.65
2022-08-25T17:49:27.151Z,9.55
2022-08-25T17:51:55.233Z,12.55
2022-08-25T17:54:23.334Z,9.27
2022-08-25T17:56:52.850Z,17.10
2022-08-25T17:59:20.882Z,13.38
2022-08-25T18:01:55.215Z,9.98
2022-08-25T18:04:23.850Z,7.00
2022-08-25T18:06:55.394Z,12.85
2022-08-25T18:09:23.715Z,11.15
2022-08-25T18:11:52.930Z,14.02
2022-08-25T18:14:25.280Z,12.93
2022-08-25T18:16:55.239Z,10.15
2022-08-25T18:19:23.429Z,9.50
2022-08-25T18:21:51.870Z,16.95
2022-08-25T18:24:20.632Z,14.27
2022-08-25T18:26:51.772Z,9.85
2022-08-25T18:29:20.716Z,9.40
2022-08-25T18:31:49.019Z,12.48
2022-08-25T18:34:18.903Z,16.27
2022-08-25T18:36:47.060Z,10.20
2022-08-25T18:39:44.571Z,12.02
2022-08-25T18:42:12.863Z,14.68
2022-08-25T18:44:44.866Z,7.88
2022-08-25T18:47:14.830Z,12.25
2022-08-25T18:49:44.324Z,9.65
2022-08-25T18:52:14.034Z,9.93
2022-08-25T18:54:42.291Z,10.85
2022-08-25T18:57:12.246Z,12.50
2022-08-25T18:59:40.312Z,12.55
2022-08-25T19:02:10.619Z,14.32
2022-08-25T19:04:41.218Z,10.30
2022-08-25T19:07:13.697Z,9.70
2022-08-25T19:09:41.872Z,16.30
2022-08-25T19:12:11.633Z,14.05
2022-08-25T19:14:50.733Z,14.70
2022-08-25T19:17:19.199Z,19.35
2022-08-25T19:19:52.959Z,12.30
2022-08-25T19:22:40.804Z,13.43
2022-08-25T19:25:10.682Z,14.93
2022-08-25T19:27:38.962Z,10.18
2022-08-25T19:30:10.049Z,9.68
2022-08-25T19:32:40.795Z,12.57
2022-08-25T19:35:12.303Z,15.60
2022-08-25T19:37:42.654Z,11.25
2022-08-25T19:40:11.289Z,10.07
2022-08-25T19:42:39.755Z,14.57
2022-08-25T19:45:11.597Z,14.45
2022-08-25T19:47:41.339Z,15.80
2022-08-25T19:50:16.653Z,16.08
2022-08-25T19:52:47.042Z,12.93
2022-08-25T19:55:19.907Z,8.02
2022-08-25T19:57:47.999Z,13.40
2022-08-25T20:00:22.509Z,17.05
2022-08-25T20:02:51.063Z,17.15
2022-08-25T20:05:23.565Z,11.32
2022-08-25T20:07:56.359Z,15.50
2022-08-25T20:10:27.884Z,10.30
2022-08-25T20:12:56.648Z,11.35
2022-08-25T20:15:26.494Z,12.93
2022-08-25T20:17:56.635Z,11.50
2022-08-25T20:20:25.156Z,12.68
2022-08-25T20:23:16.121Z,17.63
2022-08-25T20:25:44.796Z,11.27
2022-08-25T20:28:18.926Z,12.80
2022-08-25T20:30:47.605Z,14.20
2022-08-25T20:33:22.924Z,10.48
2022-08-25T20:35:52.956Z,15.70
2022-08-25T20:38:22.703Z,16.10
2022-08-25T20:40:51.021Z,15.32
2022-08-25T20:43:20.772Z,10.48
2022-08-25T20:45:49.172Z,10.77
2022-08-25T20:48:17.909Z,11.65
2022-08-25T20:50:46.066Z,14.05
2022-08-25T20:53:27.114Z,12.48
2022-08-25T20:55:55.374Z,13.65
2022-08-25T20:58:23.422Z,14.98
2022-08-25T21:00:51.672Z,12.07
2022-08-25T21:03:21.086Z,12.88
2022-08-25T21:05:49.426Z,11.30
2022-08-25T21:08:23.646Z,12.10
2022-08-25T21:10:53.216Z,11.18
2022-08-25T21:13:21.412Z,11.07
2022-08-25T21:15:50.953Z,14.80
2022-08-25T21:18:19.098Z,11.05
2022-08-25T21:20:47.184Z,17.05
2022-08-25T21:23:15.299Z,15.75
2022-08-25T21:25:43.715Z,16.35
2022-08-25T21:28:13.856Z,12.50
2022-08-25T21:30:44.621Z,14.85
2022-08-25T21:33:15.479Z,16.25
2022-08-25T21:35:43.942Z,17.83
2022-08-25T21:38:12.019Z,9.82
2022-08-25T21:40:41.562Z,13.48
2022-08-25T21:43:14.430Z,11.05
2022-08-25T21:45:47.223Z,14.18
2022-08-25T21:48:15.374Z,9.18
2022-08-25T21:50:43.635Z,14.60
2022-08-25T21:53:11.983Z,10.43
2022-08-25T21:55:41.824Z,12.10
2022-08-25T21:58:10.232Z,11.68
2022-08-25T22:00:39.876Z,12.85
2022-08-25T22:03:08.424Z,9.88
2022-08-25T22:05:37.770Z,10.73
2022-08-25T22:08:05.856Z,15.65
2022-08-25T22:10:34.036Z,13.75
2022-08-25T22:13:04.035Z,17.00
2022-08-25T22:15:33.926Z,12.77
2022-08-25T22:18:03.367Z,14.85
2022-08-25T22:20:32.035Z,14.70
2022-08-25T22:23:01.045Z,13.27
2022-08-25T22:25:29.464Z,11.73
2022-08-25T22:27:59.680Z,13.00
2022-08-25T22:30:29.562Z,15.55
2022-08-25T22:32:59.076Z,16.00
2022-08-25T22:35:31.812Z,17.05
2022-08-25T22:38:01.454Z,11.40
2022-08-25T22:40:30.733Z,15.02
2022-08-25T22:42:58.926Z,9.68
2022-08-25T22:45:27.241Z,15.45
2022-08-25T22:47:55.362Z,12.27
2022-08-25T22:50:23.524Z,20.17
2022-08-25T22:52:53.191Z,18.27
2022-08-25T22:55:22.053Z,15.35
2022-08-25T22:57:50.366Z,15.10
2022-08-25T23:00:23.305Z,19.85
2022-08-25T23:02:53.420Z,14.80
2022-08-25T23:05:22.145Z,15.00
2022-08-25T23:07:52.925Z,15.25
2022-08-25T23:10:22.818Z,22.58
2022-08-25T23:12:51.658Z,15.35
2022-08-25T23:15:19.763Z,14.25
2022-08-25T23:17:47.749Z,15.35
2022-08-25T23:20:33.748Z,19.50
2022-08-25T23:23:03.225Z,16.85
2022-08-25T23:25:31.330Z,10.85
2022-08-25T23:27:59.464Z,10.68
2022-08-25T23:30:27.640Z,15.23
2022-08-25T23:32:58.608Z,18.30
2022-08-25T23:35:26.763Z,16.63
2022-08-25T23:37:58.737Z,15.48
2022-08-25T23:40:28.180Z,12.45
2022-08-25T23:42:56.237Z,11.18
2022-08-25T23:45:24.258Z,12.13
2022-08-25T23:47:53.990Z,17.85
2022-08-25T23:50:22.197Z,18.23
2022-08-25T23:52:50.492Z,10.20
2022-08-25T23:55:18.575Z,19.80
2022-08-25T23:57:51.586Z,15.18
